Terminal Aerodrome Forecast
Issued by NWS

Home | Current Version | Previous Version | Text Only | Print | Product List | Glossary On
Versions: 1 2 3 4 5 6 7 8 9 10 11 12 13
000
FTUS44 KOUN 152320
TAFCSM
TAF
KCSM 152320Z 1600/1624 18014KT P6SM SCT250
     FM160500 18019G27KT P6SM BKN250
     FM161400 20022G32KT P6SM SCT250=

USA.gov is the U.S. government's official web portal to all federal, state and local government web resources and services.